Time;durP1;ratioP1;P1;durP2;ratioP2;P2;SDS_P1;SDS_P2;PMS_P1;PMS_P2;Temp;Humidity;BMP_temperature;BMP_pressure;BME280_temperature;BME280_humidity;BME280_pressure;Samples;Min_cycle;Max_cycle;Signal;HPM_P1;HPM_P2
2023/08/24 00:00:41;;;;;;;5.10;2.83;;;;;;;18.41;84.07;101780.50;4923288;29;20256;-73
2023/08/24 00:03:08;;;;;;;6.68;2.80;;;;;;;18.37;84.00;101783.03;4895663;29;20044;-72
2023/08/24 00:05:36;;;;;;;8.52;3.08;;;;;;;18.35;83.98;101776.25;4937585;28;20505;-73
2023/08/24 00:08:04;;;;;;;7.60;3.50;;;;;;;18.30;84.59;101771.75;4925140;29;20059;-72
2023/08/24 00:10:30;;;;;;;5.82;2.95;;;;;;;18.25;85.38;101782.66;4924890;29;20036;-72
2023/08/24 00:12:56;;;;;;;8.45;2.40;;;;;;;18.19;85.09;101779.22;4922303;29;20046;-71
2023/08/24 00:15:22;;;;;;;5.47;2.78;;;;;;;18.16;85.20;101785.25;4918607;29;20063;-71
2023/08/24 00:17:48;;;;;;;6.88;2.58;;;;;;;18.13;85.57;101785.84;4926074;29;20533;-72
2023/08/24 00:20:13;;;;;;;;;;;;;;;18.09;86.09;101786.72;4920249;29;20048;-73
2023/08/24 00:22:39;;;;;;;8.32;2.45;;;;;;;18.00;86.05;101775.72;4921511;29;20010;-73
2023/08/24 00:25:09;;;;;;;4.00;2.55;;;;;;;17.96;85.93;101777.44;4921825;29;20078;-73
2023/08/24 00:27:35;;;;;;;6.47;2.53;;;;;;;17.92;85.90;101777.22;4921185;29;20040;-72
2023/08/24 00:30:09;;;;;;;6.70;2.92;;;;;;;17.91;85.75;101778.31;4920418;29;20050;-73
2023/08/24 00:32:36;;;;;;;4.57;2.63;;;;;;;17.87;85.75;101771.84;4909256;29;20039;-72
2023/08/24 00:35:03;;;;;;;4.18;1.90;;;;;;;17.84;86.10;101774.38;4922121;29;20051;-71
2023/08/24 00:37:29;;;;;;;6.53;2.70;;;;;;;17.79;86.16;101769.00;4906015;29;20088;-72
2023/08/24 00:39:55;;;;;;;10.40;2.53;;;;;;;17.76;86.07;101766.91;4905665;29;20059;-72
2023/08/24 00:42:22;;;;;;;4.50;2.10;;;;;;;17.71;86.23;101765.84;4908736;29;20046;-72
2023/08/24 00:44:49;;;;;;;7.75;2.30;;;;;;;17.68;86.54;101771.84;4906812;29;20044;-72
2023/08/24 00:47:16;;;;;;;5.68;2.10;;;;;;;17.67;86.57;101774.81;4916790;29;20039;-71
2023/08/24 00:49:42;;;;;;;4.18;1.75;;;;;;;17.66;86.74;101768.59;4906864;29;20118;-71
2023/08/24 00:52:10;;;;;;;6.90;1.88;;;;;;;17.63;87.21;101763.78;4909524;29;20044;-72
2023/08/24 00:54:39;;;;;;;8.02;2.42;;;;;;;17.63;87.08;101769.19;4934336;28;21188;-71
2023/08/24 00:57:05;;;;;;;5.15;1.83;;;;;;;17.62;87.08;101773.00;4919622;29;20067;-72
2023/08/24 00:59:32;;;;;;;4.90;2.28;;;;;;;17.62;87.52;101778.44;4926332;29;20055;-72
2023/08/24 01:01:58;;;;;;;11.15;2.35;;;;;;;17.62;87.34;101774.91;4912648;29;20091;-72
2023/08/24 01:04:24;;;;;;;6.28;2.60;;;;;;;17.62;87.72;101777.63;4921819;29;20051;-71
2023/08/24 01:06:52;;;;;;;4.90;1.90;;;;;;;17.64;87.16;101775.41;4923720;29;20040;-72
2023/08/24 01:09:20;;;;;;;7.40;2.00;;;;;;;17.65;87.23;101779.72;4922165;29;20043;-72
2023/08/24 01:12:25;;;;;;;4.70;1.98;;;;;;;17.66;87.48;101774.03;4904249;29;20047;-72
2023/08/24 01:15:07;;;;;;;7.00;1.90;;;;;;;17.69;86.96;101789.72;4912053;29;20043;-73
2023/08/24 01:17:35;;;;;;;8.35;2.42;;;;;;;17.68;87.00;101785.38;4926387;29;20134;-72
2023/08/24 01:20:05;;;;;;;3.35;1.90;;;;;;;17.69;86.93;101791.63;4909936;29;20099;-72
2023/08/24 01:22:44;;;;;;;6.55;2.25;;;;;;;17.65;87.11;101783.25;4923816;29;20044;-71
2023/08/24 01:25:12;;;;;;;6.38;2.20;;;;;;;17.62;87.02;101789.25;4926309;29;20057;-71
2023/08/24 01:27:40;;;;;;;3.60;2.33;;;;;;;17.60;86.78;101796.84;4937370;28;20052;-71
2023/08/24 01:30:07;;;;;;;4.05;1.70;;;;;;;17.58;86.95;101790.94;4889881;29;20131;-71
2023/08/24 01:32:34;;;;;;;5.32;2.22;;;;;;;17.56;87.22;101795.84;4921726;29;20043;-72
2023/08/24 01:35:05;;;;;;;3.42;1.67;;;;;;;17.54;87.21;101792.59;4880473;29;20044;-71
2023/08/24 01:37:32;;;;;;;7.88;2.10;;;;;;;17.50;86.93;101794.28;4903607;29;20035;-71
2023/08/24 01:40:23;;;;;;;6.72;2.33;;;;;;;17.44;86.98;101788.13;4925338;29;20187;-73
2023/08/24 01:43:05;;;;;;;4.07;1.60;;;;;;;17.42;87.21;101784.91;4918762;29;20039;-72
2023/08/24 01:45:32;;;;;;;7.30;2.00;;;;;;;17.40;87.41;101791.69;4916833;29;20138;-71
2023/08/24 01:48:03;;;;;;;5.72;2.40;;;;;;;17.38;87.47;101788.47;4922068;29;20041;-72
2023/08/24 01:50:30;;;;;;;4.40;2.15;;;;;;;17.39;87.74;101790.09;4914158;29;20044;-72
2023/08/24 01:52:56;;;;;;;6.05;1.88;;;;;;;17.36;87.82;101779.84;4908221;29;20040;-71
2023/08/24 01:55:23;;;;;;;6.85;2.00;;;;;;;17.36;87.71;101774.44;4919891;29;20817;-74
2023/08/24 01:57:49;;;;;;;4.97;1.90;;;;;;;17.37;87.99;101778.75;4907085;29;20549;-73
2023/08/24 02:00:15;;;;;;;6.25;2.03;;;;;;;17.36;88.00;101775.25;4920822;29;20043;-72
2023/08/24 02:02:44;;;;;;;7.55;2.08;;;;;;;17.36;87.71;101777.94;4926606;29;20130;-71
2023/08/24 02:05:10;;;;;;;4.30;1.88;;;;;;;17.35;87.63;101780.94;4924438;29;20115;-71
2023/08/24 02:07:35;;;;;;;4.45;2.28;;;;;;;17.31;87.84;101777.19;4925783;29;20044;-72
2023/08/24 02:10:03;;;;;;;6.70;1.90;;;;;;;17.27;87.74;101768.03;4920086;29;20433;-71
2023/08/24 02:12:29;;;;;;;3.35;1.98;;;;;;;17.21;87.96;101766.50;4907225;29;20084;-72
2023/08/24 02:14:54;;;;;;;4.20;1.83;;;;;;;17.16;87.84;101768.16;4904622;29;20762;-71
2023/08/24 02:17:20;;;;;;;6.78;2.03;;;;;;;17.15;87.79;101763.06;4888731;29;20098;-72
2023/08/24 02:19:45;;;;;;;7.63;2.10;;;;;;;17.08;87.97;101755.28;4933452;28;20130;-71
2023/08/24 02:22:11;;;;;;;6.90;2.10;;;;;;;17.03;88.02;101766.16;4920499;29;20114;-73
2023/08/24 02:24:37;;;;;;;3.60;1.92;;;;;;;16.99;87.67;101757.00;4891415;29;20048;-72
2023/08/24 02:27:03;;;;;;;4.50;1.67;;;;;;;16.95;87.41;101766.78;4921907;29;20828;-72
2023/08/24 02:29:29;;;;;;;3.72;2.10;;;;;;;16.89;87.78;101759.81;4904434;29;20794;-72
2023/08/24 02:31:55;;;;;;;3.95;1.88;;;;;;;16.84;87.85;101751.75;4938115;28;20039;-72
2023/08/24 02:34:21;;;;;;;5.75;2.13;;;;;;;16.83;87.48;101755.56;4924621;29;20480;-72
2023/08/24 02:36:46;;;;;;;5.70;2.50;;;;;;;16.80;88.32;101756.13;4923220;29;20137;-71
2023/08/24 02:39:12;;;;;;;4.95;2.00;;;;;;;16.75;88.32;101750.78;4900698;29;20035;-73
2023/08/24 02:41:38;;;;;;;5.78;2.20;;;;;;;16.75;88.32;101756.19;4918522;29;20074;-73
2023/08/24 02:44:03;;;;;;;4.60;2.10;;;;;;;16.71;88.45;101760.53;4909174;29;20044;-71
2023/08/24 02:46:29;;;;;;;7.60;3.08;;;;;;;16.69;88.81;101754.59;4920065;29;20414;-72
2023/08/24 02:48:55;;;;;;;6.80;2.30;;;;;;;16.69;89.13;101760.00;4903225;29;20569;-71
2023/08/24 02:51:21;;;;;;;;;;;;;;;16.68;89.72;101758.41;4926212;29;20043;-71
2023/08/24 02:53:48;;;;;;;5.18;2.00;;;;;;;16.63;89.43;101757.34;4920073;29;20645;-71
2023/08/24 02:56:13;;;;;;;6.95;2.30;;;;;;;16.62;89.74;101755.72;4908458;29;20127;-72
2023/08/24 02:58:39;;;;;;;4.95;2.30;;;;;;;16.61;89.80;101753.31;4937512;28;20034;-72
2023/08/24 03:01:08;;;;;;;;;;;;;;;16.59;89.81;101748.16;4924684;29;20055;-72
2023/08/24 03:03:34;;;;;;;7.50;2.60;;;;;;;16.56;89.81;101751.47;4905536;29;19969;-71
2023/08/24 03:06:05;;;;;;;7.75;2.15;;;;;;;16.53;89.45;101746.63;4923728;29;20122;-72
2023/08/24 03:08:32;;;;;;;5.20;3.22;;;;;;;16.51;89.41;101742.59;4906492;29;20040;-72
2023/08/24 03:10:59;;;;;;;7.65;2.72;;;;;;;16.48;89.37;101751.28;4888239;29;20498;-73
2023/08/24 03:13:26;;;;;;;5.93;2.63;;;;;;;16.45;89.52;101744.53;4915523;29;20544;-75
2023/08/24 03:15:53;;;;;;;5.80;2.67;;;;;;;16.41;89.34;101740.00;4905374;29;20040;-72
2023/08/24 03:18:20;;;;;;;6.97;2.72;;;;;;;16.38;89.54;101741.34;4891534;29;20035;-72
2023/08/24 03:20:47;;;;;;;3.78;2.17;;;;;;;16.35;89.27;101747.34;4919868;29;20050;-72
2023/08/24 03:23:15;;;;;;;7.32;2.97;;;;;;;16.28;89.60;101733.34;4883645;29;20039;-73
2023/08/24 03:25:41;;;;;;;8.48;3.38;;;;;;;16.26;90.12;101740.94;4917206;29;20454;-71
2023/08/24 03:28:08;;;;;;;6.70;2.65;;;;;;;16.24;89.82;101732.28;4909745;29;20039;-72
2023/08/24 03:30:39;;;;;;;4.00;2.90;;;;;;;16.22;89.35;101748.78;4911738;29;20039;-72
2023/08/24 03:33:05;;;;;;;5.13;2.72;;;;;;;16.22;89.61;101753.38;4921080;29;20040;-72
2023/08/24 03:35:32;;;;;;;5.90;3.30;;;;;;;16.17;89.62;101743.41;4922998;29;20044;-72
2023/08/24 03:37:58;;;;;;;5.28;3.10;;;;;;;16.15;89.37;101739.41;4910531;29;20517;-74
2023/08/24 03:40:25;;;;;;;5.88;2.90;;;;;;;16.11;89.35;101742.66;4924042;29;20050;-71
2023/08/24 03:42:51;;;;;;;;;;;;;;;16.08;89.67;101737.00;4922470;29;20028;-72
2023/08/24 03:45:16;;;;;;;5.72;3.22;;;;;;;16.01;89.96;101740.03;4921600;29;19966;-72
2023/08/24 03:47:44;;;;;;;5.25;3.35;;;;;;;16.02;89.71;101738.13;4922122;29;20587;-72
2023/08/24 03:50:10;;;;;;;4.07;2.40;;;;;;;15.98;90.02;101731.66;4922635;29;20036;-72
2023/08/24 03:52:36;;;;;;;6.50;3.17;;;;;;;15.94;90.22;101736.03;4907589;29;20079;-72
2023/08/24 03:55:02;;;;;;;;;;;;;;;15.92;90.39;101730.94;4917260;29;20482;-72
2023/08/24 03:57:27;;;;;;;3.80;2.33;;;;;;;15.88;90.08;101729.88;4919947;29;19923;-73
2023/08/24 03:59:53;;;;;;;6.82;2.70;;;;;;;15.85;90.34;101730.44;4919204;29;20126;-73
2023/08/24 04:02:19;;;;;;;5.85;2.90;;;;;;;15.84;90.66;101734.19;4940522;28;20031;-71
2023/08/24 04:04:46;;;;;;;4.40;3.17;;;;;;;15.83;90.60;101732.59;4908975;29;20039;-74
2023/08/24 04:07:12;;;;;;;3.90;2.50;;;;;;;15.83;90.54;101729.88;4924214;29;20036;-71
2023/08/24 04:09:37;;;;;;;;;;;;;;;15.83;90.66;101732.59;4919033;29;20096;-72
2023/08/24 04:12:03;;;;;;;3.95;2.60;;;;;;;15.78;90.90;101733.44;4893460;29;19914;-72
2023/08/24 04:14:29;;;;;;;;;;;;;;;15.78;90.87;101740.72;4909234;29;20461;-72
2023/08/24 04:16:55;;;;;;;5.45;2.47;;;;;;;15.74;90.85;101734.28;4936480;28;20336;-74
2023/08/24 04:19:21;;;;;;;5.22;2.65;;;;;;;15.73;90.94;101738.88;4917281;29;20044;-72
2023/08/24 04:21:47;;;;;;;;;;;;;;;15.73;91.43;101732.69;4920518;29;20382;-73
2023/08/24 04:24:12;;;;;;;5.35;3.05;;;;;;;15.70;91.48;101733.22;4925106;29;19930;-74
2023/08/24 04:26:38;;;;;;;;;;;;;;;15.71;91.82;101729.44;4919416;29;20052;-72
2023/08/24 04:29:03;;;;;;;7.35;3.03;;;;;;;15.69;92.02;101726.22;4905257;29;19925;-73
2023/08/24 04:31:29;;;;;;;;;;;;;;;15.74;92.25;101726.19;4926796;29;20039;-73
2023/08/24 04:33:54;;;;;;;5.03;2.90;;;;;;;15.75;91.81;101725.09;4923604;29;20384;-73
2023/08/24 04:36:20;;;;;;;;;;;;;;;15.79;91.97;101732.38;4913913;29;20038;-73
2023/08/24 04:38:45;;;;;;;6.38;3.47;;;;;;;15.78;91.68;101733.44;4919867;29;19930;-74
2023/08/24 04:41:12;;;;;;;;;;;;;;;15.81;92.01;101735.59;4922772;29;20035;-73
2023/08/24 04:43:38;;;;;;;4.95;3.35;;;;;;;15.79;91.97;101731.56;4922435;29;19919;-73
2023/08/24 04:46:03;;;;;;;;;;;;;;;15.81;92.05;101732.06;4924302;29;20081;-73
2023/08/24 04:48:35;;;;;;;8.57;4.10;;;;;;;15.77;92.18;101739.91;4906487;29;19946;-73
2023/08/24 04:51:04;;;;;;;7.63;4.22;;;;;;;15.80;92.04;101749.38;4887583;29;20036;-75
2023/08/24 04:53:29;;;;;;;6.47;3.60;;;;;;;15.80;92.22;101747.47;4916576;29;20023;-73
2023/08/24 04:55:55;;;;;;;;;;;;;;;15.84;92.83;101761.22;4924198;29;20051;-73
2023/08/24 04:58:21;;;;;;;5.63;3.83;;;;;;;15.82;92.60;101758.00;4921823;29;19914;-73
2023/08/24 05:00:48;;;;;;;;;;;;;;;15.86;92.92;101753.66;4906747;29;20091;-71
2023/08/24 05:03:14;;;;;;;5.85;3.97;;;;;;;15.84;92.97;101755.81;4924440;29;19918;-73
2023/08/24 05:05:39;;;;;;;;;;;;;;;15.91;92.86;101744.69;4925113;29;20619;-72
2023/08/24 05:08:06;;;;;;;5.28;3.15;;;;;;;15.90;92.75;101746.59;4923662;29;19925;-72
2023/08/24 05:10:33;;;;;;;7.82;4.50;;;;;;;15.91;92.50;101758.19;4920015;29;20044;-72
2023/08/24 05:12:59;;;;;;;6.25;3.45;;;;;;;15.89;92.34;101753.09;4909241;29;20091;-72
2023/08/24 05:15:26;;;;;;;7.88;3.90;;;;;;;15.92;92.31;101757.09;4920134;29;20032;-72
2023/08/24 05:17:59;;;;;;;6.90;4.15;;;;;;;15.89;92.62;101758.47;4902991;29;20794;-72
2023/08/24 05:20:25;;;;;;;6.88;4.15;;;;;;;15.91;92.29;101769.81;4904450;29;20040;-72
2023/08/24 05:22:51;;;;;;;8.07;4.60;;;;;;;15.93;92.35;101775.75;4918125;29;20032;-71
2023/08/24 05:25:17;;;;;;;;;;;;;;;15.95;92.61;101773.56;4907184;29;20047;-73
2023/08/24 05:27:43;;;;;;;14.25;5.40;;;;;;;15.95;92.78;101772.78;4918806;29;19918;-70
2023/08/24 05:30:09;;;;;;;;;;;;;;;15.95;93.11;101773.56;4924623;29;20047;-72
2023/08/24 05:32:38;;;;;;;9.43;5.03;;;;;;;15.93;93.49;101781.16;4923295;29;19918;-72
2023/08/24 05:35:05;;;;;;;9.00;4.00;;;;;;;15.97;93.13;101771.41;4920823;29;20090;-74
2023/08/24 05:37:31;;;;;;;6.15;4.20;;;;;;;16.02;93.02;101759.75;4925973;29;20099;-72
2023/08/24 05:39:57;;;;;;;8.00;5.57;;;;;;;16.03;93.49;101758.66;4924057;28;20055;-72
2023/08/24 05:42:23;;;;;;;;;;;;;;;16.09;93.47;101774.56;4908483;29;20044;-72
2023/08/24 05:44:49;;;;;;;7.57;4.88;;;;;;;16.10;93.50;101765.34;4925165;29;20328;-72
2023/08/24 05:47:15;;;;;;;;;;;;;;;16.17;93.35;101769.63;4924338;29;20082;-71
2023/08/24 05:49:40;;;;;;;8.90;4.85;;;;;;;16.22;92.93;101772.31;4924988;29;19918;-73
2023/08/24 05:52:06;;;;;;;;;;;;;;;16.33;93.41;101773.84;4911386;29;20386;-74
2023/08/24 05:54:32;;;;;;;11.07;4.80;;;;;;;16.44;93.23;101771.84;4937435;28;20323;-71
2023/08/24 05:57:00;;;;;;;;;;;;;;;16.58;92.35;101770.91;4925504;29;20043;-71
2023/08/24 05:59:26;;;;;;;9.90;5.38;;;;;;;16.69;91.79;101771.63;4921414;29;19915;-72
2023/08/24 06:01:52;;;;;;;10.90;5.68;;;;;;;16.80;91.42;101761.53;4906818;29;20046;-72
2023/08/24 06:04:18;;;;;;;13.20;5.75;;;;;;;16.89;91.01;101762.53;4906965;29;20035;-73
2023/08/24 06:06:44;;;;;;;12.93;5.80;;;;;;;16.99;90.13;101765.09;4928547;29;20037;-71
2023/08/24 06:09:10;;;;;;;13.70;5.15;;;;;;;17.10;89.70;101760.41;4910978;29;20036;-71
2023/08/24 06:11:36;;;;;;;11.05;5.00;;;;;;;17.21;88.41;101752.97;4942938;28;20042;-72
2023/08/24 06:14:01;;;;;;;9.68;4.68;;;;;;;17.33;88.52;101753.34;4908932;29;20039;-73
2023/08/24 06:16:28;;;;;;;9.10;4.40;;;;;;;17.44;87.85;101760.25;4943110;28;20572;-72
2023/08/24 06:18:54;;;;;;;9.38;4.88;;;;;;;17.58;87.18;101760.34;4907601;29;20512;-70
2023/08/24 06:21:19;;;;;;;10.27;5.38;;;;;;;17.66;86.51;101765.88;4927240;29;20035;-73
2023/08/24 06:23:47;;;;;;;7.75;4.88;;;;;;;17.71;86.75;101756.94;4923832;29;20346;-71
2023/08/24 06:26:13;;;;;;;9.10;4.68;;;;;;;17.81;86.06;101748.63;4930073;29;20031;-71
2023/08/24 06:28:39;;;;;;;7.40;4.50;;;;;;;17.94;85.74;101738.97;4924805;29;20035;-72
2023/08/24 06:31:07;;;;;;;8.68;4.45;;;;;;;18.01;84.71;101732.06;4915443;29;20414;-74
2023/08/24 06:33:36;;;;;;;10.75;3.58;;;;;;;18.10;84.81;101737.63;4925572;29;20513;-72
2023/08/24 06:36:07;;;;;;;4.93;3.20;;;;;;;18.17;84.35;101729.13;4906053;29;20078;-74
2023/08/24 06:38:34;;;;;;;;;;;;;;;18.26;83.93;101728.13;4920557;29;20052;-74
2023/08/24 06:41:00;;;;;;;6.20;3.25;;;;;;;18.32;83.92;101719.94;4925821;29;19970;-73
2023/08/24 06:43:26;;;;;;;8.38;3.88;;;;;;;18.27;82.80;101724.31;4916891;29;20123;-73
2023/08/24 06:45:54;;;;;;;7.68;4.50;;;;;;;18.33;82.71;101729.66;4924999;29;20527;-71
2023/08/24 06:48:19;;;;;;;8.20;4.25;;;;;;;18.39;82.74;101728.47;4910097;29;20497;-72
2023/08/24 06:50:45;;;;;;;7.97;4.20;;;;;;;18.37;83.20;101730.69;4924192;29;20042;-71
2023/08/24 06:53:11;;;;;;;5.85;3.20;;;;;;;18.45;83.11;101724.56;4926968;29;20035;-72
2023/08/24 06:55:37;;;;;;;7.05;3.00;;;;;;;18.47;83.52;101711.50;4909330;29;20035;-74
2023/08/24 06:58:05;;;;;;;6.75;3.58;;;;;;;18.52;83.07;101719.56;4925382;29;20799;-72
2023/08/24 07:00:31;;;;;;;6.15;2.88;;;;;;;18.63;82.59;101715.56;4907046;29;20044;-71
2023/08/24 07:02:57;;;;;;;5.65;3.05;;;;;;;18.76;82.16;101713.97;4923132;29;20067;-72
2023/08/24 07:05:23;;;;;;;5.72;3.03;;;;;;;18.83;80.75;101695.38;4911801;29;20046;-72
2023/08/24 07:07:50;;;;;;;7.47;3.88;;;;;;;18.81;81.05;101703.03;4908048;29;20035;-71
2023/08/24 07:10:15;;;;;;;5.13;2.35;;;;;;;18.88;81.62;101699.91;4905656;29;20438;-72
2023/08/24 07:12:41;;;;;;;3.65;2.53;;;;;;;18.96;79.66;101691.06;4909446;29;20034;-73
2023/08/24 07:15:08;;;;;;;8.75;2.42;;;;;;;18.99;79.65;101682.31;4925627;29;20148;-71
2023/08/24 07:17:34;;;;;;;6.82;2.67;;;;;;;19.05;79.43;101687.34;4923846;29;20035;-72
2023/08/24 07:19:59;;;;;;;4.30;2.42;;;;;;;19.09;80.51;101691.03;4901994;29;20753;-71
2023/08/24 07:22:27;;;;;;;5.93;2.25;;;;;;;19.14;79.94;101692.84;4923705;29;20099;-74
2023/08/24 07:24:53;;;;;;;5.10;2.58;;;;;;;19.17;80.64;101705.00;4893319;29;20818;-74
2023/08/24 07:27:19;;;;;;;4.68;1.65;;;;;;;19.24;79.41;101698.09;4923566;29;20095;-72
2023/08/24 07:29:45;;;;;;;4.28;2.35;;;;;;;19.27;79.02;101705.59;4904756;29;21092;-72
2023/08/24 07:32:10;;;;;;;6.72;2.60;;;;;;;19.35;78.08;101704.88;4925477;29;20027;-73
2023/08/24 07:34:36;;;;;;;4.47;1.60;;;;;;;19.39;78.52;101704.28;4909187;29;20481;-72
2023/08/24 07:37:02;;;;;;;;;;;;;;;19.44;77.99;101706.88;4924070;29;20040;-72
2023/08/24 07:39:28;;;;;;;3.78;1.65;;;;;;;19.49;78.03;101704.84;4906756;29;19929;-71
2023/08/24 07:41:54;;;;;;;2.55;1.42;;;;;;;19.43;77.74;101707.97;4921965;29;20039;-70
2023/08/24 07:44:19;;;;;;;4.55;1.65;;;;;;;19.42;78.25;101704.47;4910094;29;20035;-72
2023/08/24 07:46:46;;;;;;;3.95;1.85;;;;;;;19.49;77.78;101701.31;4921048;29;20035;-71
2023/08/24 07:49:12;;;;;;;5.68;2.53;;;;;;;19.49;77.24;101699.41;4908721;29;20110;-74
2023/08/24 07:51:37;;;;;;;4.10;1.80;;;;;;;19.58;77.24;101694.09;4908063;29;20753;-74
2023/08/24 07:54:04;;;;;;;3.97;1.90;;;;;;;19.61;76.58;101693.47;4908054;29;20032;-71
2023/08/24 07:56:30;;;;;;;5.70;1.92;;;;;;;19.64;76.34;101701.00;4922145;29;20036;-74
2023/08/24 07:58:55;;;;;;;3.85;2.00;;;;;;;19.71;75.80;101704.13;4920976;29;20051;-72
2023/08/24 08:01:21;;;;;;;5.32;1.88;;;;;;;19.74;76.70;101705.41;4918992;29;20036;-72
2023/08/24 08:03:47;;;;;;;4.82;2.03;;;;;;;19.68;76.49;101701.19;4922861;29;20066;-74
2023/08/24 08:06:13;;;;;;;3.72;1.70;;;;;;;19.67;75.84;101705.84;4889319;29;20055;-71
2023/08/24 08:08:39;;;;;;;4.30;1.85;;;;;;;19.72;76.09;101703.00;4893592;29;20039;-73
2023/08/24 08:11:05;;;;;;;6.35;2.00;;;;;;;19.85;75.63;101701.34;4925055;29;20035;-72
2023/08/24 08:13:30;;;;;;;5.40;1.70;;;;;;;19.94;75.16;101690.53;4908412;29;20826;-74
2023/08/24 08:16:04;;;;;;;6.13;1.92;;;;;;;20.06;74.43;101679.91;4908925;29;20035;-73
2023/08/24 08:18:31;;;;;;;7.07;2.08;;;;;;;20.15;75.15;101678.00;4936188;28;20074;-73
2023/08/24 08:20:57;;;;;;;6.00;1.80;;;;;;;20.24;74.47;101670.69;4905144;29;20517;-72
2023/08/24 08:23:22;;;;;;;6.25;1.90;;;;;;;20.37;73.37;101669.00;4924739;29;20050;-71
2023/08/24 08:25:48;;;;;;;5.25;1.65;;;;;;;20.42;72.34;101675.13;4926174;29;20042;-72
2023/08/24 08:28:13;;;;;;;3.70;1.40;;;;;;;20.47;71.67;101676.13;4911139;29;20823;-72
2023/08/24 08:30:39;;;;;;;6.05;1.50;;;;;;;20.57;71.41;101678.56;4894625;29;20170;-70
2023/08/24 08:33:05;;;;;;;4.18;1.55;;;;;;;20.56;71.75;101671.53;4922056;29;20039;-71
2023/08/24 08:35:30;;;;;;;5.30;1.75;;;;;;;20.65;72.26;101677.78;4925560;29;20425;-72
2023/08/24 08:37:56;;;;;;;3.58;1.73;;;;;;;20.74;72.14;101666.94;4921811;29;20040;-72
2023/08/24 08:40:28;;;;;;;4.30;2.05;;;;;;;20.76;72.29;101670.16;4908195;29;20043;-72
2023/08/24 08:42:56;;;;;;;5.25;2.20;;;;;;;20.80;71.25;101658.31;4923266;29;20046;-73
2023/08/24 08:45:25;;;;;;;6.45;2.50;;;;;;;20.76;72.17;101659.25;4921023;29;20056;-72
2023/08/24 08:47:51;;;;;;;5.80;2.88;;;;;;;20.85;71.42;101658.16;4936314;28;20048;-72
2023/08/24 08:50:17;;;;;;;4.70;2.15;;;;;;;20.93;70.93;101657.41;4907442;29;20039;-72
2023/08/24 08:52:43;;;;;;;8.15;2.50;;;;;;;20.95;70.88;101652.44;4908616;29;20517;-72
2023/08/24 08:55:10;;;;;;;7.25;2.13;;;;;;;21.04;71.62;101655.16;4905193;29;20036;-72
2023/08/24 08:57:39;;;;;;;6.13;2.13;;;;;;;21.12;71.45;101653.56;4917618;29;20114;-74
2023/08/24 09:00:09;;;;;;;4.05;2.00;;;;;;;21.30;71.03;101665.31;4923095;29;20063;-72
2023/08/24 09:02:36;;;;;;;4.60;2.30;;;;;;;21.35;70.54;101665.16;4927843;29;20143;-72
2023/08/24 09:05:04;;;;;;;3.83;2.10;;;;;;;21.40;69.43;101654.88;4924280;29;20061;-73
2023/08/24 09:07:29;;;;;;;5.50;2.15;;;;;;;21.44;68.84;101653.13;4908493;29;20043;-71
2023/08/24 09:09:55;;;;;;;6.15;2.55;;;;;;;21.44;68.65;101647.69;4907905;29;20046;-72
2023/08/24 09:12:21;;;;;;;3.83;1.88;;;;;;;21.55;67.84;101647.38;4895739;29;20683;-72
2023/08/24 09:14:47;;;;;;;5.65;1.80;;;;;;;21.60;67.37;101655.38;4923138;29;20036;-73
2023/08/24 09:17:22;;;;;;;4.00;1.73;;;;;;;21.70;68.10;101661.31;4923754;29;20102;-71
2023/08/24 09:19:50;;;;;;;6.72;2.35;;;;;;;21.72;68.70;101664.50;4924014;29;20036;-71
2023/08/24 09:22:16;;;;;;;4.90;2.30;;;;;;;21.65;70.21;101657.94;4892833;29;20071;-71
2023/08/24 09:24:42;;;;;;;3.05;2.00;;;;;;;21.70;69.96;101653.13;4920369;29;20072;-71
2023/08/24 09:27:16;;;;;;;5.68;2.20;;;;;;;21.78;69.62;101662.41;4922932;29;20076;-72
2023/08/24 09:29:42;;;;;;;5.40;1.70;;;;;;;21.97;69.34;101659.34;4907884;29;20508;-73
2023/08/24 09:32:08;;;;;;;4.03;2.22;;;;;;;22.01;65.91;101660.28;4926190;29;20032;-74
2023/08/24 09:34:36;;;;;;;4.35;1.70;;;;;;;21.90;63.87;101672.66;4892634;29;20223;-71
2023/08/24 09:37:04;;;;;;;2.72;1.60;;;;;;;21.93;65.86;101670.06;4936563;28;20067;-70
2023/08/24 09:39:29;;;;;;;3.10;1.50;;;;;;;22.00;66.39;101670.38;4926182;29;20042;-74
2023/08/24 09:42:00;;;;;;;2.33;1.63;;;;;;;22.06;64.25;101671.81;4909930;29;20425;-72
2023/08/24 09:44:28;;;;;;;3.80;2.00;;;;;;;22.07;65.38;101664.44;4909419;29;20039;-71
2023/08/24 09:46:54;;;;;;;5.50;2.15;;;;;;;22.16;64.86;101667.19;4909787;29;20513;-74
2023/08/24 09:49:19;;;;;;;7.60;2.03;;;;;;;22.18;65.74;101665.72;4922872;28;20036;-72
2023/08/24 09:51:46;;;;;;;4.10;1.95;;;;;;;22.31;66.42;101658.47;4910862;29;20043;-72
2023/08/24 09:54:13;;;;;;;3.13;1.83;;;;;;;22.39;64.43;101645.91;4913253;29;20592;-71
2023/08/24 09:56:40;;;;;;;4.85;2.13;;;;;;;22.46;64.87;101636.06;4922393;29;20091;-75
2023/08/24 09:59:13;;;;;;;4.18;2.17;;;;;;;22.55;65.03;101634.09;4923341;28;20043;-71
2023/08/24 10:01:42;;;;;;;6.20;2.40;;;;;;;22.59;64.71;101636.97;4907414;29;20228;-73
2023/08/24 10:04:11;;;;;;;8.13;2.78;;;;;;;22.70;65.66;101638.22;4926259;29;20577;-72
2023/08/24 10:06:42;;;;;;;3.90;2.10;;;;;;;22.70;67.71;101619.09;4921985;29;20046;-73
2023/08/24 10:09:11;;;;;;;4.57;2.30;;;;;;;22.71;64.55;101622.63;4920985;29;20048;-72
2023/08/24 10:11:43;;;;;;;4.32;2.60;;;;;;;22.73;65.29;101601.25;4924387;29;20035;-71
2023/08/24 10:14:22;;;;;;;3.63;2.08;;;;;;;22.81;66.19;101600.38;4938748;28;20059;-74
2023/08/24 10:16:49;;;;;;;8.73;1.95;;;;;;;22.90;65.95;101609.38;4924409;29;20047;-74
2023/08/24 10:19:15;;;;;;;5.53;2.42;;;;;;;22.99;64.24;101607.38;4922392;29;20040;-70
2023/08/24 10:21:42;;;;;;;4.30;2.53;;;;;;;23.00;65.67;101608.97;4918821;29;20070;-75
2023/08/24 10:24:09;;;;;;;5.32;2.63;;;;;;;23.02;63.55;101606.69;4907836;29;20067;-71
2023/08/24 10:26:39;;;;;;;4.72;2.42;;;;;;;23.14;64.68;101623.16;4940590;28;20038;-73
2023/08/24 10:29:06;;;;;;;7.88;3.30;;;;;;;23.22;64.18;101613.28;4922241;29;20123;-73
2023/08/24 10:31:33;;;;;;;5.15;2.78;;;;;;;23.28;63.59;101586.56;4907520;29;20126;-73
2023/08/24 10:34:01;;;;;;;4.78;2.50;;;;;;;23.37;63.89;101579.91;4908715;29;20035;-74
2023/08/24 10:36:28;;;;;;;2.78;1.70;;;;;;;23.50;67.29;101572.50;4919946;29;20048;-72
2023/08/24 10:38:58;;;;;;;5.20;2.78;;;;;;;23.54;64.84;101567.97;4910507;29;20051;-71
2023/08/24 10:41:26;;;;;;;6.03;2.30;;;;;;;23.65;64.96;101560.19;4924537;29;20667;-72
2023/08/24 10:44:03;;;;;;;6.57;2.30;;;;;;;23.76;64.87;101566.78;4906299;29;20070;-70
2023/08/24 10:46:35;;;;;;;4.53;2.63;;;;;;;23.84;63.32;101559.63;4910860;29;20122;-73
2023/08/24 10:49:04;;;;;;;9.10;4.00;;;;;;;23.87;62.87;101554.28;4890239;29;20412;-71
2023/08/24 10:51:31;;;;;;;4.18;2.67;;;;;;;23.92;63.16;101561.50;4921184;29;20123;-72
2023/08/24 10:53:59;;;;;;;6.03;3.38;;;;;;;23.82;62.39;101565.44;4926296;29;20512;-70
2023/08/24 10:56:52;;;;;;;6.90;3.45;;;;;;;23.68;61.74;101552.09;4926023;29;20043;-74
2023/08/24 10:59:19;;;;;;;8.43;3.10;;;;;;;23.81;62.79;101552.91;4906099;29;20035;-74
2023/08/24 11:01:51;;;;;;;7.72;3.17;;;;;;;23.64;61.54;101540.25;4925113;29;20179;-72
2023/08/24 11:04:18;;;;;;;5.65;2.47;;;;;;;23.78;64.23;101539.13;4923090;29;20795;-72
2023/08/24 11:06:53;;;;;;;5.10;2.67;;;;;;;23.81;61.29;101539.25;4940903;28;20615;-71
2023/08/24 11:09:19;;;;;;;6.15;3.10;;;;;;;23.93;62.30;101539.25;4925068;29;20031;-73
2023/08/24 11:12:03;;;;;;;6.43;2.58;;;;;;;24.12;62.10;101533.22;4923169;29;20043;-73
2023/08/24 11:14:29;;;;;;;8.82;3.15;;;;;;;24.22;62.16;101534.69;4895268;29;20035;-72
2023/08/24 11:17:02;;;;;;;5.38;2.80;;;;;;;24.33;61.07;101529.56;4910846;29;20505;-72
2023/08/24 11:19:28;;;;;;;6.57;2.50;;;;;;;24.31;61.48;101518.13;4922441;29;20047;-71
2023/08/24 11:21:53;;;;;;;5.43;2.22;;;;;;;24.33;60.63;101504.94;4915862;29;20056;-74
2023/08/24 11:24:19;;;;;;;5.95;2.70;;;;;;;24.34;61.35;101501.06;4920244;29;20071;-74
2023/08/24 11:26:47;;;;;;;5.60;2.45;;;;;;;24.44;61.17;101500.59;4907004;29;20066;-74
2023/08/24 11:29:15;;;;;;;7.28;2.60;;;;;;;24.60;63.03;101493.25;4912058;29;20044;-72
2023/08/24 11:31:41;;;;;;;4.50;2.80;;;;;;;24.39;60.27;101498.13;4887280;29;20032;-73